sensor_id;sensor_type;location;lat;lon;timestamp;temperature;humidity
212;DHT22;16228;48.800;9.002;2023-06-24T00:00:35;14.50;96.90
212;DHT22;16228;48.800;9.002;2023-06-24T00:03:04;14.50;96.90
212;DHT22;16228;48.800;9.002;2023-06-24T00:05:33;14.40;96.90
212;DHT22;16228;48.800;9.002;2023-06-24T00:08:00;14.30;96.90
212;DHT22;16228;48.800;9.002;2023-06-24T00:10:29;14.30;96.90
212;DHT22;16228;48.800;9.002;2023-06-24T00:12:56;14.30;96.90
212;DHT22;16228;48.800;9.002;2023-06-24T00:15:27;14.30;96.90
212;DHT22;16228;48.800;9.002;2023-06-24T00:17:54;14.30;96.90
212;DHT22;16228;48.800;9.002;2023-06-24T00:20:33;14.30;96.90
212;DHT22;16228;48.800;9.002;2023-06-24T00:23:00;14.30;96.90
212;DHT22;16228;48.800;9.002;2023-06-24T00:25:27;14.20;96.90
212;DHT22;16228;48.800;9.002;2023-06-24T00:27:54;14.20;96.90
212;DHT22;16228;48.800;9.002;2023-06-24T00:30:22;14.10;96.90
212;DHT22;16228;48.800;9.002;2023-06-24T00:32:49;14.10;96.90
212;DHT22;16228;48.800;9.002;2023-06-24T00:35:18;14.10;96.90
212;DHT22;16228;48.800;9.002;2023-06-24T00:37:46;14.00;96.90
212;DHT22;16228;48.800;9.002;2023-06-24T00:40:13;14.00;96.90
212;DHT22;16228;48.800;9.002;2023-06-24T00:42:44;14.00;96.90
212;DHT22;16228;48.800;9.002;2023-06-24T00:45:12;14.00;96.90
212;DHT22;16228;48.800;9.002;2023-06-24T00:47:40;13.90;96.90
212;DHT22;16228;48.800;9.002;2023-06-24T00:50:08;13.90;96.90
212;DHT22;16228;48.800;9.002;2023-06-24T00:52:37;13.90;96.90
212;DHT22;16228;48.800;9.002;2023-06-24T00:55:10;13.90;96.90
212;DHT22;16228;48.800;9.002;2023-06-24T00:57:39;13.80;96.90
212;DHT22;16228;48.800;9.002;2023-06-24T01:00:07;13.80;96.90
212;DHT22;16228;48.800;9.002;2023-06-24T01:02:39;13.70;96.90
212;DHT22;16228;48.800;9.002;2023-06-24T01:05:08;13.70;96.90
212;DHT22;16228;48.800;9.002;2023-06-24T01:07:37;13.70;96.90
212;DHT22;16228;48.800;9.002;2023-06-24T01:10:06;13.60;96.90
212;DHT22;16228;48.800;9.002;2023-06-24T01:12:36;13.60;96.90
212;DHT22;16228;48.800;9.002;2023-06-24T01:15:06;13.60;96.90
212;DHT22;16228;48.800;9.002;2023-06-24T01:17:35;13.50;96.90
212;DHT22;16228;48.800;9.002;2023-06-24T01:20:08;13.50;96.90
212;DHT22;16228;48.800;9.002;2023-06-24T01:25:52;13.40;96.90
212;DHT22;16228;48.800;9.002;2023-06-24T01:28:39;13.30;96.90
212;DHT22;16228;48.800;9.002;2023-06-24T01:31:38;13.30;96.90
212;DHT22;16228;48.800;9.002;2023-06-24T01:34:13;13.30;96.90
212;DHT22;16228;48.800;9.002;2023-06-24T01:36:45;13.30;96.90
212;DHT22;16228;48.800;9.002;2023-06-24T01:39:16;13.30;96.90
212;DHT22;16228;48.800;9.002;2023-06-24T01:41:47;13.30;96.90
212;DHT22;16228;48.800;9.002;2023-06-24T01:44:17;13.30;96.90
212;DHT22;16228;48.800;9.002;2023-06-24T01:46:48;13.30;96.90
212;DHT22;16228;48.800;9.002;2023-06-24T01:49:18;13.30;96.90
212;DHT22;16228;48.800;9.002;2023-06-24T01:51:48;13.30;96.90
212;DHT22;16228;48.800;9.002;2023-06-24T01:54:17;13.20;96.90
212;DHT22;16228;48.800;9.002;2023-06-24T01:56:47;13.20;96.90
212;DHT22;16228;48.800;9.002;2023-06-24T01:59:17;13.10;96.90
212;DHT22;16228;48.800;9.002;2023-06-24T02:01:46;13.10;96.90
212;DHT22;16228;48.800;9.002;2023-06-24T02:04:14;13.10;96.90
212;DHT22;16228;48.800;9.002;2023-06-24T02:06:43;13.10;96.90
212;DHT22;16228;48.800;9.002;2023-06-24T02:09:11;13.10;96.90
212;DHT22;16228;48.800;9.002;2023-06-24T02:11:40;13.10;96.90
212;DHT22;16228;48.800;9.002;2023-06-24T02:14:09;13.10;96.90
212;DHT22;16228;48.800;9.002;2023-06-24T02:16:37;13.00;96.90
212;DHT22;16228;48.800;9.002;2023-06-24T02:19:08;13.00;96.90
212;DHT22;16228;48.800;9.002;2023-06-24T02:21:39;12.90;96.90
212;DHT22;16228;48.800;9.002;2023-06-24T02:24:07;12.80;96.90
212;DHT22;16228;48.800;9.002;2023-06-24T02:26:35;12.80;96.90
212;DHT22;16228;48.800;9.002;2023-06-24T02:29:08;12.80;96.90
212;DHT22;16228;48.800;9.002;2023-06-24T02:31:36;12.70;96.90
212;DHT22;16228;48.800;9.002;2023-06-24T02:34:03;12.70;96.90
212;DHT22;16228;48.800;9.002;2023-06-24T02:36:31;12.70;96.90
212;DHT22;16228;48.800;9.002;2023-06-24T02:38:59;12.70;96.90
212;DHT22;16228;48.800;9.002;2023-06-24T02:41:26;12.70;96.90
212;DHT22;16228;48.800;9.002;2023-06-24T02:43:53;12.70;96.90
212;DHT22;16228;48.800;9.002;2023-06-24T02:46:21;12.70;96.90
212;DHT22;16228;48.800;9.002;2023-06-24T02:48:49;12.60;96.90
212;DHT22;16228;48.800;9.002;2023-06-24T02:51:18;12.60;96.90
212;DHT22;16228;48.800;9.002;2023-06-24T02:53:47;12.60;96.90
212;DHT22;16228;48.800;9.002;2023-06-24T02:56:16;12.60;96.90
212;DHT22;16228;48.800;9.002;2023-06-24T02:58:47;12.50;96.90
212;DHT22;16228;48.800;9.002;2023-06-24T03:01:15;12.50;96.90
212;DHT22;16228;48.800;9.002;2023-06-24T03:03:43;12.50;96.90
212;DHT22;16228;48.800;9.002;2023-06-24T03:06:15;12.50;96.90
212;DHT22;16228;48.800;9.002;2023-06-24T03:08:43;12.50;96.90
212;DHT22;16228;48.800;9.002;2023-06-24T03:11:14;12.50;96.90
212;DHT22;16228;48.800;9.002;2023-06-24T03:13:41;12.50;96.90
212;DHT22;16228;48.800;9.002;2023-06-24T03:16:09;12.50;96.90
212;DHT22;16228;48.800;9.002;2023-06-24T03:18:40;12.50;96.90
212;DHT22;16228;48.800;9.002;2023-06-24T03:21:07;12.50;96.90
212;DHT22;16228;48.800;9.002;2023-06-24T03:23:35;12.50;96.90
212;DHT22;16228;48.800;9.002;2023-06-24T03:26:02;12.50;96.90
212;DHT22;16228;48.800;9.002;2023-06-24T03:28:31;12.50;96.90
212;DHT22;16228;48.800;9.002;2023-06-24T03:30:58;12.50;96.90
212;DHT22;16228;48.800;9.002;2023-06-24T03:33:25;12.50;96.90
212;DHT22;16228;48.800;9.002;2023-06-24T03:35:53;12.50;96.90
212;DHT22;16228;48.800;9.002;2023-06-24T03:38:21;12.50;96.90
212;DHT22;16228;48.800;9.002;2023-06-24T03:40:48;12.50;96.90
212;DHT22;16228;48.800;9.002;2023-06-24T03:43:15;12.50;96.90
212;DHT22;16228;48.800;9.002;2023-06-24T03:45:43;12.50;96.90
212;DHT22;16228;48.800;9.002;2023-06-24T03:48:11;12.50;96.90
212;DHT22;16228;48.800;9.002;2023-06-24T03:50:38;12.50;96.90
212;DHT22;16228;48.800;9.002;2023-06-24T03:53:06;12.50;96.90
212;DHT22;16228;48.800;9.002;2023-06-24T03:55:33;12.60;96.90
212;DHT22;16228;48.800;9.002;2023-06-24T03:58:00;12.60;96.90
212;DHT22;16228;48.800;9.002;2023-06-24T04:00:27;12.60;96.90
212;DHT22;16228;48.800;9.002;2023-06-24T04:02:56;12.70;96.90
212;DHT22;16228;48.800;9.002;2023-06-24T04:05:27;12.80;96.90
212;DHT22;16228;48.800;9.002;2023-06-24T04:07:54;12.80;96.90
212;DHT22;16228;48.800;9.002;2023-06-24T04:10:21;12.90;96.90
212;DHT22;16228;48.800;9.002;2023-06-24T04:12:49;13.00;96.90
212;DHT22;16228;48.800;9.002;2023-06-24T04:15:16;13.00;96.90
212;DHT22;16228;48.800;9.002;2023-06-24T04:17:43;13.10;96.90
212;DHT22;16228;48.800;9.002;2023-06-24T04:20:12;13.10;96.90
212;DHT22;16228;48.800;9.002;2023-06-24T04:22:40;13.20;96.90
212;DHT22;16228;48.800;9.002;2023-06-24T04:25:08;13.30;96.90
212;DHT22;16228;48.800;9.002;2023-06-24T04:27:36;13.40;96.90
212;DHT22;16228;48.800;9.002;2023-06-24T04:30:04;13.50;96.90
212;DHT22;16228;48.800;9.002;2023-06-24T04:32:31;13.50;96.90
212;DHT22;16228;48.800;9.002;2023-06-24T04:34:58;13.60;96.90
212;DHT22;16228;48.800;9.002;2023-06-24T04:37:28;13.70;96.90
212;DHT22;16228;48.800;9.002;2023-06-24T04:39:55;13.90;96.90
212;DHT22;16228;48.800;9.002;2023-06-24T04:42:22;14.00;96.90
212;DHT22;16228;48.800;9.002;2023-06-24T04:44:49;14.10;96.90
212;DHT22;16228;48.800;9.002;2023-06-24T04:47:17;14.20;96.90
212;DHT22;16228;48.800;9.002;2023-06-24T04:49:44;14.30;96.90
212;DHT22;16228;48.800;9.002;2023-06-24T04:52:12;14.40;96.90
212;DHT22;16228;48.800;9.002;2023-06-24T04:54:40;14.50;96.90
212;DHT22;16228;48.800;9.002;2023-06-24T04:57:09;14.50;96.90
212;DHT22;16228;48.800;9.002;2023-06-24T04:59:49;14.50;96.90
212;DHT22;16228;48.800;9.002;2023-06-24T05:02:16;14.60;96.90
212;DHT22;16228;48.800;9.002;2023-06-24T05:04:43;14.70;96.90
212;DHT22;16228;48.800;9.002;2023-06-24T05:07:11;14.80;96.90
212;DHT22;16228;48.800;9.002;2023-06-24T05:09:40;14.90;96.90
212;DHT22;16228;48.800;9.002;2023-06-24T05:12:08;15.00;96.90
212;DHT22;16228;48.800;9.002;2023-06-24T05:14:36;15.20;96.90
212;DHT22;16228;48.800;9.002;2023-06-24T05:17:03;15.40;96.90
212;DHT22;16228;48.800;9.002;2023-06-24T05:19:31;15.60;96.90
212;DHT22;16228;48.800;9.002;2023-06-24T05:21:58;15.70;96.90
212;DHT22;16228;48.800;9.002;2023-06-24T05:24:26;15.90;96.90
212;DHT22;16228;48.800;9.002;2023-06-24T05:26:54;16.10;96.90
212;DHT22;16228;48.800;9.002;2023-06-24T05:29:21;16.20;96.90
212;DHT22;16228;48.800;9.002;2023-06-24T05:31:48;16.30;96.90
212;DHT22;16228;48.800;9.002;2023-06-24T05:34:16;16.50;96.90
212;DHT22;16228;48.800;9.002;2023-06-24T05:36:43;16.80;96.90
212;DHT22;16228;48.800;9.002;2023-06-24T05:39:10;17.00;96.90
212;DHT22;16228;48.800;9.002;2023-06-24T05:41:38;17.40;96.90
212;DHT22;16228;48.800;9.002;2023-06-24T05:44:08;17.70;96.90
212;DHT22;16228;48.800;9.002;2023-06-24T05:46:36;17.90;96.90
212;DHT22;16228;48.800;9.002;2023-06-24T05:49:04;18.00;96.90
212;DHT22;16228;48.800;9.002;2023-06-24T05:51:31;18.10;96.90
212;DHT22;16228;48.800;9.002;2023-06-24T05:53:58;18.30;96.90
212;DHT22;16228;48.800;9.002;2023-06-24T05:56:25;18.50;96.90
212;DHT22;16228;48.800;9.002;2023-06-24T05:58:52;18.60;96.90
212;DHT22;16228;48.800;9.002;2023-06-24T06:01:21;18.70;96.90
212;DHT22;16228;48.800;9.002;2023-06-24T06:03:48;18.80;96.90
212;DHT22;16228;48.800;9.002;2023-06-24T06:06:15;19.00;96.90
212;DHT22;16228;48.800;9.002;2023-06-24T06:08:42;19.40;96.90
212;DHT22;16228;48.800;9.002;2023-06-24T06:11:09;20.00;96.90
212;DHT22;16228;48.800;9.002;2023-06-24T06:13:36;20.60;96.90
212;DHT22;16228;48.800;9.002;2023-06-24T06:16:04;21.10;96.90
212;DHT22;16228;48.800;9.002;2023-06-24T06:18:33;21.30;96.90
212;DHT22;16228;48.800;9.002;2023-06-24T06:21:00;21.50;96.90
212;DHT22;16228;48.800;9.002;2023-06-24T06:23:27;21.50;96.90
212;DHT22;16228;48.800;9.002;2023-06-24T06:25:55;21.50;96.90
212;DHT22;16228;48.800;9.002;2023-06-24T06:28:22;21.50;96.90
212;DHT22;16228;48.800;9.002;2023-06-24T06:30:49;21.60;96.90
212;DHT22;16228;48.800;9.002;2023-06-24T06:33:17;21.60;96.90
212;DHT22;16228;48.800;9.002;2023-06-24T06:35:45;21.60;96.90
212;DHT22;16228;48.800;9.002;2023-06-24T06:38:12;21.60;96.90
212;DHT22;16228;48.800;9.002;2023-06-24T06:40:40;21.60;96.90
212;DHT22;16228;48.800;9.002;2023-06-24T06:43:07;21.90;96.90
212;DHT22;16228;48.800;9.002;2023-06-24T06:45:34;22.30;96.10
212;DHT22;16228;48.800;9.002;2023-06-24T06:48:05;22.70;95.20
212;DHT22;16228;48.800;9.002;2023-06-24T06:50:36;23.10;94.50
212;DHT22;16228;48.800;9.002;2023-06-24T06:53:04;23.40;91.00
212;DHT22;16228;48.800;9.002;2023-06-24T06:55:32;23.90;89.10
212;DHT22;16228;48.800;9.002;2023-06-24T06:57:59;24.60;89.70
212;DHT22;16228;48.800;9.002;2023-06-24T07:00:26;25.60;85.10
212;DHT22;16228;48.800;9.002;2023-06-24T07:02:53;26.60;83.20
212;DHT22;16228;48.800;9.002;2023-06-24T07:05:20;27.30;79.30
212;DHT22;16228;48.800;9.002;2023-06-24T07:07:47;27.60;77.90
212;DHT22;16228;48.800;9.002;2023-06-24T07:10:17;27.80;76.30
212;DHT22;16228;48.800;9.002;2023-06-24T07:12:45;28.10;76.00
212;DHT22;16228;48.800;9.002;2023-06-24T07:15:12;28.80;76.00
212;DHT22;16228;48.800;9.002;2023-06-24T07:17:40;29.60;77.40
212;DHT22;16228;48.800;9.002;2023-06-24T07:20:08;30.40;71.80
212;DHT22;16228;48.800;9.002;2023-06-24T07:22:35;31.00;70.90
212;DHT22;16228;48.800;9.002;2023-06-24T07:25:02;30.70;70.30
212;DHT22;16228;48.800;9.002;2023-06-24T07:27:31;31.00;72.30
212;DHT22;16228;48.800;9.002;2023-06-24T07:29:58;31.30;68.80
212;DHT22;16228;48.800;9.002;2023-06-24T07:32:25;31.80;68.90
212;DHT22;16228;48.800;9.002;2023-06-24T07:34:52;32.00;67.70
212;DHT22;16228;48.800;9.002;2023-06-24T07:37:20;32.20;65.50
212;DHT22;16228;48.800;9.002;2023-06-24T07:39:47;32.40;65.50
212;DHT22;16228;48.800;9.002;2023-06-24T07:42:14;32.30;66.60
212;DHT22;16228;48.800;9.002;2023-06-24T07:44:45;32.50;65.60
212;DHT22;16228;48.800;9.002;2023-06-24T07:47:13;32.90;65.20
212;DHT22;16228;48.800;9.002;2023-06-24T07:49:40;33.40;65.10
212;DHT22;16228;48.800;9.002;2023-06-24T07:52:07;33.50;63.70
212;DHT22;16228;48.800;9.002;2023-06-24T07:54:34;33.50;66.90
212;DHT22;16228;48.800;9.002;2023-06-24T07:57:02;34.00;67.30
212;DHT22;16228;48.800;9.002;2023-06-24T07:59:29;34.50;63.80
212;DHT22;16228;48.800;9.002;2023-06-24T08:01:58;34.70;62.30
212;DHT22;16228;48.800;9.002;2023-06-24T08:04:25;35.00;64.80
212;DHT22;16228;48.800;9.002;2023-06-24T08:06:52;35.50;62.10
212;DHT22;16228;48.800;9.002;2023-06-24T08:09:19;35.60;60.50
212;DHT22;16228;48.800;9.002;2023-06-24T08:11:46;35.50;61.80
212;DHT22;16228;48.800;9.002;2023-06-24T08:14:15;35.80;62.80
212;DHT22;16228;48.800;9.002;2023-06-24T08:16:42;36.30;63.80
212;DHT22;16228;48.800;9.002;2023-06-24T08:19:11;36.50;61.00
212;DHT22;16228;48.800;9.002;2023-06-24T08:21:38;36.80;60.80
212;DHT22;16228;48.800;9.002;2023-06-24T08:24:06;36.30;58.00
212;DHT22;16228;48.800;9.002;2023-06-24T08:26:34;35.60;58.40
212;DHT22;16228;48.800;9.002;2023-06-24T08:29:01;34.90;60.60
212;DHT22;16228;48.800;9.002;2023-06-24T08:31:28;34.30;63.90
212;DHT22;16228;48.800;9.002;2023-06-24T08:33:59;34.10;61.80
212;DHT22;16228;48.800;9.002;2023-06-24T08:36:29;34.40;64.40
212;DHT22;16228;48.800;9.002;2023-06-24T08:38:56;34.80;59.90
212;DHT22;16228;48.800;9.002;2023-06-24T08:41:24;35.00;61.20
212;DHT22;16228;48.800;9.002;2023-06-24T08:43:52;35.70;62.00
212;DHT22;16228;48.800;9.002;2023-06-24T08:46:19;36.50;58.90
212;DHT22;16228;48.800;9.002;2023-06-24T08:48:48;37.30;60.00
212;DHT22;16228;48.800;9.002;2023-06-24T08:51:20;37.50;60.60
212;DHT22;16228;48.800;9.002;2023-06-24T08:53:50;37.60;57.30
212;DHT22;16228;48.800;9.002;2023-06-24T08:56:17;37.00;56.30
212;DHT22;16228;48.800;9.002;2023-06-24T08:58:44;37.30;58.40
212;DHT22;16228;48.800;9.002;2023-06-24T09:01:12;37.90;59.70
212;DHT22;16228;48.800;9.002;2023-06-24T09:03:39;37.70;56.40
212;DHT22;16228;48.800;9.002;2023-06-24T09:06:06;37.70;56.50
212;DHT22;16228;48.800;9.002;2023-06-24T09:08:33;37.80;53.60
212;DHT22;16228;48.800;9.002;2023-06-24T09:11:08;36.90;55.70
212;DHT22;16228;48.800;9.002;2023-06-24T09:13:36;35.90;56.90
212;DHT22;16228;48.800;9.002;2023-06-24T09:16:14;35.70;59.40
212;DHT22;16228;48.800;9.002;2023-06-24T09:18:41;35.90;59.80
212;DHT22;16228;48.800;9.002;2023-06-24T09:21:14;35.60;61.00
212;DHT22;16228;48.800;9.002;2023-06-24T09:23:43;35.30;59.50
212;DHT22;16228;48.800;9.002;2023-06-24T09:26:12;35.50;57.50
212;DHT22;16228;48.800;9.002;2023-06-24T09:28:39;35.90;57.40
212;DHT22;16228;48.800;9.002;2023-06-24T09:31:07;36.30;56.90
212;DHT22;16228;48.800;9.002;2023-06-24T09:33:35;36.40;58.30
212;DHT22;16228;48.800;9.002;2023-06-24T09:36:03;35.20;58.20
212;DHT22;16228;48.800;9.002;2023-06-24T09:38:35;35.30;59.60
212;DHT22;16228;48.800;9.002;2023-06-24T09:41:03;36.30;60.50
212;DHT22;16228;48.800;9.002;2023-06-24T09:43:34;36.40;54.90
212;DHT22;16228;48.800;9.002;2023-06-24T09:46:02;35.60;56.90
212;DHT22;16228;48.800;9.002;2023-06-24T09:48:29;35.60;56.50
212;DHT22;16228;48.800;9.002;2023-06-24T09:51:00;36.10;54.50
212;DHT22;16228;48.800;9.002;2023-06-24T09:53:30;37.00;57.70
212;DHT22;16228;48.800;9.002;2023-06-24T09:55:59;37.50;55.20
212;DHT22;16228;48.800;9.002;2023-06-24T09:58:28;38.20;53.40
212;DHT22;16228;48.800;9.002;2023-06-24T10:00:59;38.60;53.20
212;DHT22;16228;48.800;9.002;2023-06-24T10:03:29;39.00;52.60
212;DHT22;16228;48.800;9.002;2023-06-24T10:05:56;39.30;51.60
212;DHT22;16228;48.800;9.002;2023-06-24T10:08:24;39.30;48.90
212;DHT22;16228;48.800;9.002;2023-06-24T10:10:51;39.30;51.30
212;DHT22;16228;48.800;9.002;2023-06-24T10:13:18;39.60;50.70
212;DHT22;16228;48.800;9.002;2023-06-24T10:15:46;40.00;51.60
212;DHT22;16228;48.800;9.002;2023-06-24T10:18:33;40.10;49.30
212;DHT22;16228;48.800;9.002;2023-06-24T10:21:01;40.50;50.40
212;DHT22;16228;48.800;9.002;2023-06-24T10:23:39;40.40;49.70
212;DHT22;16228;48.800;9.002;2023-06-24T10:26:08;40.70;49.40
212;DHT22;16228;48.800;9.002;2023-06-24T10:29:10;40.70;49.00
212;DHT22;16228;48.800;9.002;2023-06-24T10:31:53;41.30;49.70
212;DHT22;16228;48.800;9.002;2023-06-24T10:34:28;41.00;49.80
212;DHT22;16228;48.800;9.002;2023-06-24T10:36:58;40.50;48.10
212;DHT22;16228;48.800;9.002;2023-06-24T10:39:45;40.30;50.80
212;DHT22;16228;48.800;9.002;2023-06-24T10:42:31;40.10;47.30
212;DHT22;16228;48.800;9.002;2023-06-24T10:45:00;39.90;48.00
212;DHT22;16228;48.800;9.002;2023-06-24T10:47:29;39.80;48.70
212;DHT22;16228;48.800;9.002;2023-06-24T10:49:58;40.10;51.10
212;DHT22;16228;48.800;9.002;2023-06-24T10:52:25;40.20;48.60
212;DHT22;16228;48.800;9.002;2023-06-24T10:54:53;40.10;48.60
212;DHT22;16228;48.800;9.002;2023-06-24T10:57:22;39.90;49.40
212;DHT22;16228;48.800;9.002;2023-06-24T10:59:50;39.80;46.10
212;DHT22;16228;48.800;9.002;2023-06-24T11:02:18;39.60;46.70
212;DHT22;16228;48.800;9.002;2023-06-24T11:04:48;39.50;49.20
212;DHT22;16228;48.800;9.002;2023-06-24T11:07:17;39.80;49.80
212;DHT22;16228;48.800;9.002;2023-06-24T11:09:48;40.40;49.80
212;DHT22;16228;48.800;9.002;2023-06-24T11:12:16;40.50;48.50
212;DHT22;16228;48.800;9.002;2023-06-24T11:14:43;40.10;46.40
212;DHT22;16228;48.800;9.002;2023-06-24T11:17:10;40.20;47.20
212;DHT22;16228;48.800;9.002;2023-06-24T11:19:39;40.20;49.10
212;DHT22;16228;48.800;9.002;2023-06-24T11:22:07;40.20;48.10
212;DHT22;16228;48.800;9.002;2023-06-24T11:24:36;40.40;47.70
212;DHT22;16228;48.800;9.002;2023-06-24T11:27:05;40.70;46.20
212;DHT22;16228;48.800;9.002;2023-06-24T11:29:33;41.20;48.20
212;DHT22;16228;48.800;9.002;2023-06-24T11:32:01;41.20;46.20
212;DHT22;16228;48.800;9.002;2023-06-24T11:34:29;41.10;46.10
212;DHT22;16228;48.800;9.002;2023-06-24T11:36:56;41.10;45.70
212;DHT22;16228;48.800;9.002;2023-06-24T11:39:25;41.10;47.90
212;DHT22;16228;48.800;9.002;2023-06-24T11:41:54;41.10;46.90
212;DHT22;16228;48.800;9.002;2023-06-24T11:44:24;41.00;43.10
212;DHT22;16228;48.800;9.002;2023-06-24T11:46:51;40.80;45.90
212;DHT22;16228;48.800;9.002;2023-06-24T11:49:19;41.10;48.10
212;DHT22;16228;48.800;9.002;2023-06-24T11:51:47;41.60;46.30
212;DHT22;16228;48.800;9.002;2023-06-24T11:54:16;41.60;45.40
212;DHT22;16228;48.800;9.002;2023-06-24T11:56:49;41.50;45.80
212;DHT22;16228;48.800;9.002;2023-06-24T11:59:21;41.10;47.10
212;DHT22;16228;48.800;9.002;2023-06-24T12:01:54;41.40;46.70
212;DHT22;16228;48.800;9.002;2023-06-24T12:04:21;41.60;44.70
212;DHT22;16228;48.800;9.002;2023-06-24T12:06:54;41.70;47.30
212;DHT22;16228;48.800;9.002;2023-06-24T12:09:21;41.20;43.30
212;DHT22;16228;48.800;9.002;2023-06-24T12:11:48;40.90;44.70
212;DHT22;16228;48.800;9.002;2023-06-24T12:14:17;41.10;45.40
212;DHT22;16228;48.800;9.002;2023-06-24T12:16:44;40.90;44.50
212;DHT22;16228;48.800;9.002;2023-06-24T12:19:11;40.80;45.90
212;DHT22;16228;48.800;9.002;2023-06-24T12:21:39;40.90;44.70
212;DHT22;16228;48.800;9.002;2023-06-24T12:24:06;41.20;44.50
212;DHT22;16228;48.800;9.002;2023-06-24T12:26:34;41.50;44.10
212;DHT22;16228;48.800;9.002;2023-06-24T12:29:02;41.70;43.00
212;DHT22;16228;48.800;9.002;2023-06-24T12:31:31;42.10;42.70
212;DHT22;16228;48.800;9.002;2023-06-24T12:33:58;42.20;43.30
212;DHT22;16228;48.800;9.002;2023-06-24T12:36:26;41.80;43.40
212;DHT22;16228;48.800;9.002;2023-06-24T12:38:53;41.30;43.80
212;DHT22;16228;48.800;9.002;2023-06-24T12:41:20;41.00;45.30
212;DHT22;16228;48.800;9.002;2023-06-24T12:43:47;40.90;45.10
212;DHT22;16228;48.800;9.002;2023-06-24T12:46:14;40.90;45.90
212;DHT22;16228;48.800;9.002;2023-06-24T12:48:43;41.00;43.90
212;DHT22;16228;48.800;9.002;2023-06-24T12:51:10;40.70;45.40
212;DHT22;16228;48.800;9.002;2023-06-24T12:53:37;40.70;44.90
212;DHT22;16228;48.800;9.002;2023-06-24T12:56:05;40.50;44.30
212;DHT22;16228;48.800;9.002;2023-06-24T12:58:32;40.70;45.50
212;DHT22;16228;48.800;9.002;2023-06-24T13:00:59;40.90;45.60
212;DHT22;16228;48.800;9.002;2023-06-24T13:03:26;41.00;44.50
212;DHT22;16228;48.800;9.002;2023-06-24T13:05:54;40.50;43.40
212;DHT22;16228;48.800;9.002;2023-06-24T13:08:23;40.50;43.80
212;DHT22;16228;48.800;9.002;2023-06-24T13:10:50;40.80;44.80
212;DHT22;16228;48.800;9.002;2023-06-24T13:13:17;40.30;45.70
212;DHT22;16228;48.800;9.002;2023-06-24T13:15:44;40.30;45.60
212;DHT22;16228;48.800;9.002;2023-06-24T13:18:12;39.90;46.40
212;DHT22;16228;48.800;9.002;2023-06-24T13:20:39;39.60;47.30
212;DHT22;16228;48.800;9.002;2023-06-24T13:23:07;39.70;46.10
212;DHT22;16228;48.800;9.002;2023-06-24T13:25:35;39.70;45.80
212;DHT22;16228;48.800;9.002;2023-06-24T13:28:02;39.60;46.80
212;DHT22;16228;48.800;9.002;2023-06-24T13:30:29;39.60;46.80
212;DHT22;16228;48.800;9.002;2023-06-24T13:32:56;39.30;48.40
212;DHT22;16228;48.800;9.002;2023-06-24T13:35:23;38.50;46.20
212;DHT22;16228;48.800;9.002;2023-06-24T13:37:50;38.40;49.00
212;DHT22;16228;48.800;9.002;2023-06-24T13:40:19;38.40;47.00
212;DHT22;16228;48.800;9.002;2023-06-24T13:42:46;38.00;48.10
212;DHT22;16228;48.800;9.002;2023-06-24T13:45:13;37.30;48.10
212;DHT22;16228;48.800;9.002;2023-06-24T13:47:41;36.80;50.30
212;DHT22;16228;48.800;9.002;2023-06-24T13:50:09;36.00;51.50
212;DHT22;16228;48.800;9.002;2023-06-24T13:52:37;35.20;49.90
212;DHT22;16228;48.800;9.002;2023-06-24T13:55:05;34.30;53.80
212;DHT22;16228;48.800;9.002;2023-06-24T13:57:34;33.20;55.00
212;DHT22;16228;48.800;9.002;2023-06-24T14:00:01;32.60;57.40
212;DHT22;16228;48.800;9.002;2023-06-24T14:02:28;32.30;57.50
212;DHT22;16228;48.800;9.002;2023-06-24T14:04:55;32.00;54.80
212;DHT22;16228;48.800;9.002;2023-06-24T14:07:23;31.60;57.30
212;DHT22;16228;48.800;9.002;2023-06-24T14:09:50;31.40;60.80
212;DHT22;16228;48.800;9.002;2023-06-24T14:12:17;31.20;57.60
212;DHT22;16228;48.800;9.002;2023-06-24T14:14:46;31.10;59.10
212;DHT22;16228;48.800;9.002;2023-06-24T14:17:13;30.80;57.40
212;DHT22;16228;48.800;9.002;2023-06-24T14:19:40;30.60;58.00
212;DHT22;16228;48.800;9.002;2023-06-24T14:22:08;30.50;57.50
212;DHT22;16228;48.800;9.002;2023-06-24T14:24:35;30.20;59.80
212;DHT22;16228;48.800;9.002;2023-06-24T14:27:04;30.00;59.80
212;DHT22;16228;48.800;9.002;2023-06-24T14:29:31;30.10;59.80
212;DHT22;16228;48.800;9.002;2023-06-24T14:32:00;30.00;62.30
212;DHT22;16228;48.800;9.002;2023-06-24T14:34:27;29.90;58.40
212;DHT22;16228;48.800;9.002;2023-06-24T14:36:55;29.90;62.30
212;DHT22;16228;48.800;9.002;2023-06-24T14:39:22;29.80;60.10
212;DHT22;16228;48.800;9.002;2023-06-24T14:41:49;29.70;62.60
212;DHT22;16228;48.800;9.002;2023-06-24T14:44:16;29.60;63.90
212;DHT22;16228;48.800;9.002;2023-06-24T14:46:44;29.50;62.80
212;DHT22;16228;48.800;9.002;2023-06-24T14:49:12;29.50;62.50
212;DHT22;16228;48.800;9.002;2023-06-24T14:51:39;29.40;62.40
212;DHT22;16228;48.800;9.002;2023-06-24T14:54:06;29.30;63.80
212;DHT22;16228;48.800;9.002;2023-06-24T14:56:34;29.30;63.10
212;DHT22;16228;48.800;9.002;2023-06-24T14:59:01;29.10;63.60
212;DHT22;16228;48.800;9.002;2023-06-24T15:01:28;29.10;64.60
212;DHT22;16228;48.800;9.002;2023-06-24T15:03:55;28.90;63.90
212;DHT22;16228;48.800;9.002;2023-06-24T15:06:24;28.90;64.30
212;DHT22;16228;48.800;9.002;2023-06-24T15:08:51;28.80;62.80
212;DHT22;16228;48.800;9.002;2023-06-24T15:11:18;28.80;65.00
212;DHT22;16228;48.800;9.002;2023-06-24T15:13:45;28.80;65.40
212;DHT22;16228;48.800;9.002;2023-06-24T15:16:12;28.90;63.60
212;DHT22;16228;48.800;9.002;2023-06-24T15:18:44;28.80;64.10
212;DHT22;16228;48.800;9.002;2023-06-24T15:21:13;28.80;65.20
212;DHT22;16228;48.800;9.002;2023-06-24T15:23:41;28.70;64.80
212;DHT22;16228;48.800;9.002;2023-06-24T15:26:09;28.70;64.00
212;DHT22;16228;48.800;9.002;2023-06-24T15:28:36;28.70;65.80
212;DHT22;16228;48.800;9.002;2023-06-24T15:31:03;28.70;66.70
212;DHT22;16228;48.800;9.002;2023-06-24T15:33:30;28.70;68.60
212;DHT22;16228;48.800;9.002;2023-06-24T15:35:57;28.70;69.10
212;DHT22;16228;48.800;9.002;2023-06-24T15:38:26;28.60;64.50
212;DHT22;16228;48.800;9.002;2023-06-24T15:40:54;28.60;68.90
212;DHT22;16228;48.800;9.002;2023-06-24T15:43:21;28.50;67.80
212;DHT22;16228;48.800;9.002;2023-06-24T15:45:48;28.30;66.40
212;DHT22;16228;48.800;9.002;2023-06-24T15:48:16;28.10;68.30
212;DHT22;16228;48.800;9.002;2023-06-24T15:50:43;28.00;70.90
212;DHT22;16228;48.800;9.002;2023-06-24T15:53:11;27.90;66.80
212;DHT22;16228;48.800;9.002;2023-06-24T15:55:38;27.70;66.70
212;DHT22;16228;48.800;9.002;2023-06-24T15:58:06;27.70;67.50
212;DHT22;16228;48.800;9.002;2023-06-24T16:00:33;27.60;69.80
212;DHT22;16228;48.800;9.002;2023-06-24T16:03:01;27.60;70.40
212;DHT22;16228;48.800;9.002;2023-06-24T16:05:28;27.60;69.20
212;DHT22;16228;48.800;9.002;2023-06-24T16:07:55;27.50;69.00
212;DHT22;16228;48.800;9.002;2023-06-24T16:10:22;27.30;69.10
212;DHT22;16228;48.800;9.002;2023-06-24T16:12:49;27.10;69.20